createdAt,value
2022-10-19T00:00:22.147Z,1018.14
2022-10-19T00:01:22.144Z,1018.11
2022-10-19T00:02:22.278Z,1018.14
2022-10-19T00:03:26.283Z,1018.14
2022-10-19T00:04:22.183Z,1018.18
2022-10-19T00:05:22.168Z,1018.17
2022-10-19T00:06:22.160Z,1018.23
2022-10-19T00:07:22.144Z,1018.23
2022-10-19T00:08:22.147Z,1018.27
2022-10-19T00:09:22.141Z,1018.28
2022-10-19T00:10:22.164Z,1018.29
2022-10-19T00:11:22.150Z,1018.28
2022-10-19T00:12:22.153Z,1018.35
2022-10-19T00:13:22.158Z,1018.31
2022-10-19T00:14:22.155Z,1018.3
2022-10-19T00:15:22.164Z,1018.31
2022-10-19T00:16:22.239Z,1018.26
2022-10-19T00:17:22.170Z,1018.26
2022-10-19T00:18:22.143Z,1018.24
2022-10-19T00:19:22.158Z,1018.24
2022-10-19T00:20:22.148Z,1018.22
2022-10-19T00:21:22.138Z,1018.22
2022-10-19T00:22:22.163Z,1018.18
2022-10-19T00:23:22.160Z,1018.17
2022-10-19T00:24:22.147Z,1018.16
2022-10-19T00:25:22.154Z,1018.15
2022-10-19T00:26:22.168Z,1018.16
2022-10-19T00:27:22.283Z,1018.17
2022-10-19T00:28:22.154Z,1018.16
2022-10-19T00:29:22.203Z,1018.14
2022-10-19T00:30:22.561Z,1018.12
2022-10-19T00:31:22.158Z,1018.11
2022-10-19T00:32:22.458Z,1018.07
2022-10-19T00:33:22.408Z,1018.09
2022-10-19T00:34:22.673Z,1018.03
2022-10-19T00:35:22.296Z,1018.04
2022-10-19T00:36:22.255Z,1018.05
2022-10-19T00:37:22.682Z,1018.03
2022-10-19T00:38:22.347Z,1018.03
2022-10-19T00:39:22.343Z,1018.02
2022-10-19T00:40:22.512Z,1018.06
2022-10-19T00:41:22.691Z,1018.05
2022-10-19T00:42:22.955Z,1018
2022-10-19T00:43:22.597Z,1018.04
2022-10-19T00:44:22.143Z,1018.03
2022-10-19T00:45:22.159Z,1018.04
2022-10-19T00:46:22.147Z,1018.01
2022-10-19T00:47:22.152Z,1018.02
2022-10-19T00:48:22.249Z,1018.01
2022-10-19T00:49:22.167Z,1018.02
2022-10-19T00:50:22.166Z,1017.95
2022-10-19T00:51:22.140Z,1017.96
2022-10-19T00:52:22.143Z,1017.97
2022-10-19T00:53:22.155Z,1017.98
2022-10-19T00:54:22.155Z,1017.96
2022-10-19T00:55:22.136Z,1017.97
2022-10-19T00:56:22.161Z,1017.99
2022-10-19T00:57:22.152Z,1017.96
2022-10-19T00:58:22.151Z,1018.04
2022-10-19T00:59:22.159Z,1018.03
2022-10-19T01:00:22.230Z,1018
2022-10-19T01:01:22.183Z,1018.02
2022-10-19T01:02:22.159Z,1018.03
2022-10-19T01:03:22.149Z,1018.03
2022-10-19T01:04:22.144Z,1017.99
2022-10-19T01:05:22.135Z,1017.99
2022-10-19T01:06:22.151Z,1017.98
2022-10-19T01:07:22.152Z,1017.95
2022-10-19T01:08:22.152Z,1017.99
2022-10-19T01:09:22.148Z,1017.99
2022-10-19T01:10:22.147Z,1017.94
2022-10-19T01:11:22.156Z,1017.92
2022-10-19T01:12:22.152Z,1017.99
2022-10-19T01:13:22.220Z,1018.01
2022-10-19T01:14:22.299Z,1018.01
2022-10-19T01:15:22.145Z,1017.97
2022-10-19T01:16:22.154Z,1017.95
2022-10-19T01:17:22.146Z,1017.96
2022-10-19T01:18:22.171Z,1017.92
2022-10-19T01:19:22.167Z,1017.93
2022-10-19T01:20:22.158Z,1017.94
2022-10-19T01:21:22.150Z,1017.95
2022-10-19T01:22:22.141Z,1017.94
2022-10-19T01:23:22.218Z,1017.95
2022-10-19T01:24:22.154Z,1017.95
2022-10-19T01:25:22.175Z,1017.96
2022-10-19T01:26:22.517Z,1017.92
2022-10-19T01:27:22.659Z,1017.91
2022-10-19T01:28:22.659Z,1017.93
2022-10-19T01:29:21.881Z,1017.98
2022-10-19T01:30:22.274Z,1017.94
2022-10-19T01:31:22.590Z,1018
2022-10-19T01:32:21.820Z,1018.02
2022-10-19T01:33:22.202Z,1018.01
2022-10-19T01:34:22.457Z,1017.99
2022-10-19T01:35:21.980Z,1018.01
2022-10-19T01:36:22.204Z,1018.01
2022-10-19T01:37:22.762Z,1018.02
2022-10-19T01:38:22.985Z,1018.02
2022-10-19T01:39:22.157Z,1018.01
2022-10-19T01:40:22.151Z,1018.06
2022-10-19T01:41:22.140Z,1018.06
2022-10-19T01:42:22.146Z,1018.06
2022-10-19T01:43:22.179Z,1018.1
2022-10-19T01:44:22.146Z,1018.05
2022-10-19T01:45:22.179Z,1018.07
2022-10-19T01:46:22.187Z,1018.06
2022-10-19T01:47:22.167Z,1018.04
2022-10-19T01:48:22.194Z,1018.01
2022-10-19T01:49:22.130Z,1017.98
2022-10-19T01:50:22.152Z,1018.02
2022-10-19T01:51:22.148Z,1017.96
2022-10-19T01:52:22.144Z,1017.97
2022-10-19T01:53:22.210Z,1017.99
2022-10-19T01:54:22.153Z,1017.96
2022-10-19T01:55:22.146Z,1017.96
2022-10-19T01:56:22.155Z,1017.93
2022-10-19T01:57:22.166Z,1017.96
2022-10-19T01:58:22.267Z,1017.91
2022-10-19T01:59:22.150Z,1017.9
2022-10-19T02:00:22.319Z,1017.9
2022-10-19T02:01:22.154Z,1017.91
2022-10-19T02:02:22.371Z,1017.86
2022-10-19T02:03:22.186Z,1017.84
2022-10-19T02:04:22.372Z,1017.82
2022-10-19T02:05:22.269Z,1017.8
2022-10-19T02:06:22.615Z,1017.79
2022-10-19T02:07:22.369Z,1017.79
2022-10-19T02:08:22.561Z,1017.76
2022-10-19T02:09:22.510Z,1017.77
2022-10-19T02:10:22.703Z,1017.7
2022-10-19T02:11:22.152Z,1017.75
2022-10-19T02:12:22.419Z,1017.75
2022-10-19T02:13:22.144Z,1017.78
2022-10-19T02:14:22.414Z,1017.77
2022-10-19T02:15:22.199Z,1017.8
2022-10-19T02:16:22.481Z,1017.77
2022-10-19T02:17:22.610Z,1017.82
2022-10-19T02:18:22.148Z,1017.76
2022-10-19T02:20:23.297Z,1017.8
2022-10-19T02:21:22.436Z,1017.79
2022-10-19T02:22:22.326Z,1017.81
2022-10-19T02:23:22.765Z,1017.81
2022-10-19T02:24:22.436Z,1017.78
2022-10-19T02:25:22.956Z,1017.81
2022-10-19T02:26:22.386Z,1017.8
2022-10-19T02:27:22.164Z,1017.82
2022-10-19T02:28:22.247Z,1017.82
2022-10-19T02:29:22.159Z,1017.83
2022-10-19T02:30:22.227Z,1017.84
2022-10-19T02:31:22.358Z,1017.79
2022-10-19T02:32:22.400Z,1017.8
2022-10-19T02:33:22.148Z,1017.78
2022-10-19T02:34:22.141Z,1017.77
2022-10-19T02:35:22.284Z,1017.79
2022-10-19T02:36:22.177Z,1017.8
2022-10-19T02:37:28.254Z,1017.76
2022-10-19T02:38:22.181Z,1017.77
2022-10-19T02:39:22.457Z,1017.78
2022-10-19T02:40:22.212Z,1017.78
2022-10-19T02:41:22.174Z,1017.78
2022-10-19T02:42:22.254Z,1017.78
2022-10-19T02:43:22.168Z,1017.77
2022-10-19T02:44:22.154Z,1017.79
2022-10-19T02:45:22.178Z,1017.8
2022-10-19T02:46:22.176Z,1017.82
2022-10-19T02:47:22.195Z,1017.82
2022-10-19T02:48:22.159Z,1017.86
2022-10-19T02:49:22.153Z,1017.83
2022-10-19T02:50:22.152Z,1017.84
2022-10-19T02:51:22.179Z,1017.83
2022-10-19T02:52:22.156Z,1017.86
2022-10-19T02:53:22.179Z,1017.84
2022-10-19T02:54:22.147Z,1017.87
2022-10-19T02:55:22.146Z,1017.9
2022-10-19T02:56:22.188Z,1017.89
2022-10-19T02:57:22.226Z,1017.88
2022-10-19T02:58:22.144Z,1017.88
2022-10-19T02:59:22.143Z,1017.9
2022-10-19T03:00:22.142Z,1017.9
2022-10-19T03:01:22.177Z,1017.91
2022-10-19T03:02:22.152Z,1017.94
2022-10-19T03:03:22.156Z,1017.94
2022-10-19T03:04:22.148Z,1017.92
2022-10-19T03:05:22.267Z,1017.89
2022-10-19T03:06:22.185Z,1017.9
2022-10-19T03:07:22.212Z,1017.88
2022-10-19T03:08:22.208Z,1017.9
2022-10-19T03:09:22.157Z,1017.93
2022-10-19T03:10:22.139Z,1017.95
2022-10-19T03:11:22.144Z,1017.96
2022-10-19T03:12:22.146Z,1017.95
2022-10-19T03:13:22.154Z,1017.94
2022-10-19T03:14:22.153Z,1017.94
2022-10-19T03:15:22.153Z,1017.94
2022-10-19T03:16:22.159Z,1017.88
2022-10-19T03:17:22.148Z,1017.92
2022-10-19T03:18:22.154Z,1017.91
2022-10-19T03:19:22.163Z,1017.9
2022-10-19T03:20:22.268Z,1017.86
2022-10-19T03:21:22.141Z,1017.85
2022-10-19T03:22:22.137Z,1017.86
2022-10-19T03:23:22.135Z,1017.88
2022-10-19T03:24:22.175Z,1017.8
2022-10-19T03:25:22.140Z,1017.81
2022-10-19T03:26:22.155Z,1017.81
2022-10-19T03:27:22.161Z,1017.79
2022-10-19T03:28:22.210Z,1017.8
2022-10-19T03:29:22.190Z,1017.77
2022-10-19T03:30:22.147Z,1017.75
2022-10-19T03:31:22.154Z,1017.76
2022-10-19T03:32:22.247Z,1017.77
2022-10-19T03:33:22.201Z,1017.78
2022-10-19T03:34:22.187Z,1017.77
2022-10-19T03:35:22.142Z,1017.77
2022-10-19T03:36:22.148Z,1017.74
2022-10-19T03:37:22.143Z,1017.7
2022-10-19T03:38:22.154Z,1017.73
2022-10-19T03:39:22.192Z,1017.73
2022-10-19T03:40:22.156Z,1017.77
2022-10-19T03:41:22.152Z,1017.74
2022-10-19T03:42:22.158Z,1017.72
2022-10-19T03:43:22.152Z,1017.7
2022-10-19T03:44:22.300Z,1017.68
2022-10-19T03:45:22.527Z,1017.63
2022-10-19T03:46:22.138Z,1017.67
2022-10-19T03:47:22.422Z,1017.62
2022-10-19T03:48:22.314Z,1017.62
2022-10-19T03:49:22.632Z,1017.62
2022-10-19T03:50:22.275Z,1017.6
2022-10-19T03:51:22.262Z,1017.61
2022-10-19T03:52:22.562Z,1017.6
2022-10-19T03:53:22.193Z,1017.62
2022-10-19T03:54:28.576Z,1017.64
2022-10-19T03:55:23.298Z,1017.61
2022-10-19T03:56:23.433Z,1017.63
2022-10-19T03:57:22.496Z,1017.61
2022-10-19T03:58:22.407Z,1017.67
2022-10-19T03:59:22.149Z,1017.67
2022-10-19T04:00:22.152Z,1017.72
2022-10-19T04:01:22.201Z,1017.69
2022-10-19T04:02:22.163Z,1017.69
2022-10-19T04:03:22.162Z,1017.76
2022-10-19T04:04:22.148Z,1017.76
2022-10-19T04:05:22.169Z,1017.78
2022-10-19T04:06:26.113Z,1017.81
2022-10-19T04:07:22.174Z,1017.82
2022-10-19T04:08:22.157Z,1017.78
2022-10-19T04:09:22.146Z,1017.81
2022-10-19T04:10:22.157Z,1017.77
2022-10-19T04:11:22.181Z,1017.81
2022-10-19T04:12:22.151Z,1017.79
2022-10-19T04:13:22.182Z,1017.79
2022-10-19T04:14:32.931Z,1017.86
2022-10-19T04:15:22.156Z,1017.79
2022-10-19T04:16:22.160Z,1017.8
2022-10-19T04:17:22.150Z,1017.84
2022-10-19T04:18:22.162Z,1017.81
2022-10-19T04:19:22.140Z,1017.79
2022-10-19T04:20:22.149Z,1017.79
2022-10-19T04:21:22.365Z,1017.8
2022-10-19T04:22:22.154Z,1017.82
2022-10-19T04:23:22.443Z,1017.84
2022-10-19T04:24:22.233Z,1017.83
2022-10-19T04:25:22.539Z,1017.86
2022-10-19T04:26:22.433Z,1017.84
2022-10-19T04:27:22.417Z,1017.86
2022-10-19T04:28:23.444Z,1017.92
2022-10-19T04:29:30.021Z,1017.87
2022-10-19T04:30:22.651Z,1017.88
2022-10-19T04:31:22.438Z,1017.87
2022-10-19T04:32:22.682Z,1017.88
2022-10-19T04:33:22.574Z,1017.82
2022-10-19T04:34:22.803Z,1017.88
2022-10-19T04:35:22.328Z,1017.83
2022-10-19T04:36:22.525Z,1017.86
2022-10-19T04:37:22.464Z,1017.87
2022-10-19T04:38:22.242Z,1017.87
2022-10-19T04:39:22.498Z,1017.84
2022-10-19T04:40:22.163Z,1017.86
2022-10-19T04:41:22.259Z,1017.84
2022-10-19T04:42:22.563Z,1017.85
2022-10-19T04:43:22.560Z,1017.83
2022-10-19T04:44:21.776Z,1017.8
2022-10-19T04:45:22.143Z,1017.78
2022-10-19T04:46:22.364Z,1017.79
2022-10-19T04:47:22.715Z,1017.84
2022-10-19T04:48:21.997Z,1017.78
2022-10-19T04:49:23.322Z,1017.82
2022-10-19T04:50:22.633Z,1017.78
2022-10-19T04:51:22.137Z,1017.77
2022-10-19T04:52:22.377Z,1017.8
2022-10-19T04:54:22.141Z,1017.75
2022-10-19T04:55:22.150Z,1017.76
2022-10-19T04:56:22.174Z,1017.75
2022-10-19T04:57:22.145Z,1017.75
2022-10-19T04:58:22.165Z,1017.74
2022-10-19T04:59:22.172Z,1017.75
2022-10-19T05:00:22.202Z,1017.72
2022-10-19T05:01:22.251Z,1017.72
2022-10-19T05:02:22.149Z,1017.73
2022-10-19T05:03:22.168Z,1017.69
2022-10-19T05:04:22.173Z,1017.73
2022-10-19T05:05:22.154Z,1017.71
2022-10-19T05:06:22.172Z,1017.73
2022-10-19T05:07:22.159Z,1017.71
2022-10-19T05:08:22.143Z,1017.73
2022-10-19T05:09:22.155Z,1017.67
2022-10-19T05:10:22.157Z,1017.69
2022-10-19T05:11:22.178Z,1017.73
2022-10-19T05:12:22.155Z,1017.71
2022-10-19T05:13:22.157Z,1017.69
2022-10-19T05:14:22.330Z,1017.73
2022-10-19T05:15:22.160Z,1017.67
2022-10-19T05:16:22.195Z,1017.68
2022-10-19T05:17:22.152Z,1017.67
2022-10-19T05:18:22.157Z,1017.68
2022-10-19T05:19:22.155Z,1017.61
2022-10-19T05:20:22.164Z,1017.6
2022-10-19T05:21:22.169Z,1017.54
2022-10-19T05:22:22.151Z,1017.55
2022-10-19T05:23:22.572Z,1017.55
2022-10-19T05:24:22.163Z,1017.57
2022-10-19T05:25:22.257Z,1017.55
2022-10-19T05:26:22.293Z,1017.55
2022-10-19T05:27:22.148Z,1017.53
2022-10-19T05:28:22.410Z,1017.55
2022-10-19T05:29:22.393Z,1017.53
2022-10-19T05:30:22.150Z,1017.54
2022-10-19T05:31:22.322Z,1017.5
2022-10-19T05:32:22.300Z,1017.53
2022-10-19T05:33:22.405Z,1017.57
2022-10-19T05:34:22.214Z,1017.51
2022-10-19T05:35:25.379Z,1017.52
2022-10-19T05:36:22.728Z,1017.51
2022-10-19T05:37:22.145Z,1017.53
2022-10-19T05:38:22.187Z,1017.54
2022-10-19T05:39:22.291Z,1017.55
2022-10-19T05:40:22.156Z,1017.57
2022-10-19T05:41:22.176Z,1017.59
2022-10-19T05:42:22.263Z,1017.56
2022-10-19T05:43:22.188Z,1017.59
2022-10-19T05:44:22.144Z,1017.57
2022-10-19T05:45:22.158Z,1017.55
2022-10-19T05:46:22.412Z,1017.57
2022-10-19T05:47:22.151Z,1017.55
2022-10-19T05:48:22.181Z,1017.59
2022-10-19T05:49:22.350Z,1017.54
2022-10-19T05:50:22.356Z,1017.54
2022-10-19T05:51:22.175Z,1017.55
2022-10-19T05:52:22.244Z,1017.54
2022-10-19T05:53:22.451Z,1017.54
2022-10-19T05:54:28.573Z,1017.54
2022-10-19T05:55:22.157Z,1017.57
2022-10-19T05:56:22.189Z,1017.54
2022-10-19T05:57:22.169Z,1017.57
2022-10-19T05:58:22.148Z,1017.53
2022-10-19T05:59:22.161Z,1017.57
2022-10-19T06:00:22.152Z,1017.58
2022-10-19T06:01:22.173Z,1017.59
2022-10-19T06:02:22.142Z,1017.6
2022-10-19T06:03:22.163Z,1017.57
2022-10-19T06:04:22.148Z,1017.54
2022-10-19T06:05:22.149Z,1017.53
2022-10-19T06:06:22.143Z,1017.54
2022-10-19T06:07:22.159Z,1017.52
2022-10-19T06:08:22.188Z,1017.57
2022-10-19T06:09:22.153Z,1017.53
2022-10-19T06:10:22.302Z,1017.53
2022-10-19T06:11:22.186Z,1017.54
2022-10-19T06:12:28.369Z,1017.56
2022-10-19T06:13:22.172Z,1017.62
2022-10-19T06:14:22.144Z,1017.61
2022-10-19T06:15:22.169Z,1017.64
2022-10-19T06:16:22.176Z,1017.6
2022-10-19T06:17:22.151Z,1017.59
2022-10-19T06:18:22.185Z,1017.6
2022-10-19T06:19:22.200Z,1017.61
2022-10-19T06:20:22.240Z,1017.63
2022-10-19T06:21:22.195Z,1017.57
2022-10-19T06:22:22.154Z,1017.56
2022-10-19T06:23:22.345Z,1017.54
2022-10-19T06:24:22.159Z,1017.58
2022-10-19T06:25:23.196Z,1017.56
2022-10-19T06:26:22.172Z,1017.53
2022-10-19T06:27:22.162Z,1017.57
2022-10-19T06:28:22.145Z,1017.55
2022-10-19T06:29:22.149Z,1017.56
2022-10-19T06:30:22.213Z,1017.57
2022-10-19T06:31:22.185Z,1017.57
2022-10-19T06:32:22.264Z,1017.59
2022-10-19T06:33:22.255Z,1017.59
2022-10-19T06:34:22.363Z,1017.62
2022-10-19T06:35:22.269Z,1017.65
2022-10-19T06:36:22.164Z,1017.62
2022-10-19T06:37:22.152Z,1017.66
2022-10-19T06:38:22.141Z,1017.67
2022-10-19T06:39:22.162Z,1017.67
2022-10-19T06:40:22.148Z,1017.69
2022-10-19T06:41:22.184Z,1017.68
2022-10-19T06:42:22.162Z,1017.73
2022-10-19T06:43:22.187Z,1017.74
2022-10-19T06:44:22.150Z,1017.73
2022-10-19T06:45:22.156Z,1017.77
2022-10-19T06:46:22.196Z,1017.77
2022-10-19T06:47:22.173Z,1017.8
2022-10-19T06:48:22.163Z,1017.77
2022-10-19T06:49:22.151Z,1017.77
2022-10-19T06:50:22.472Z,1017.82
2022-10-19T06:51:22.479Z,1017.8
2022-10-19T06:52:22.445Z,1017.82
2022-10-19T06:53:22.373Z,1017.83
2022-10-19T06:54:22.677Z,1017.78
2022-10-19T06:55:22.683Z,1017.81
2022-10-19T06:56:22.302Z,1017.83
2022-10-19T06:57:22.742Z,1017.82
2022-10-19T06:58:23.864Z,1017.82
2022-10-19T06:59:22.630Z,1017.84
2022-10-19T07:00:22.418Z,1017.86
2022-10-19T07:01:22.812Z,1017.86
2022-10-19T07:02:22.512Z,1017.84
2022-10-19T07:03:22.176Z,1017.83
2022-10-19T07:04:22.379Z,1017.88
2022-10-19T07:05:22.605Z,1017.87
2022-10-19T07:06:22.447Z,1017.89
2022-10-19T07:07:22.791Z,1017.86
2022-10-19T07:08:22.482Z,1017.91
2022-10-19T07:09:22.159Z,1017.88
2022-10-19T07:10:22.439Z,1017.9
2022-10-19T07:11:22.714Z,1017.86
2022-10-19T07:12:22.454Z,1017.89
2022-10-19T07:13:22.214Z,1017.93
2022-10-19T07:14:22.441Z,1017.94
2022-10-19T07:15:22.170Z,1017.91
2022-10-19T07:16:25.690Z,1017.87
2022-10-19T07:17:22.158Z,1017.88
2022-10-19T07:18:22.171Z,1017.95
2022-10-19T07:19:22.170Z,1017.92
2022-10-19T07:20:22.164Z,1017.91
2022-10-19T07:21:22.203Z,1017.93
2022-10-19T07:22:29.786Z,1017.89
2022-10-19T07:23:22.170Z,1017.87
2022-10-19T07:24:22.169Z,1017.85
2022-10-19T07:25:22.152Z,1017.92
2022-10-19T07:26:22.167Z,1017.93
2022-10-19T07:27:22.152Z,1017.91
2022-10-19T07:28:22.160Z,1017.89
2022-10-19T07:29:22.171Z,1017.84
2022-10-19T07:30:22.307Z,1017.84
2022-10-19T07:31:22.191Z,1017.83
2022-10-19T07:32:22.175Z,1017.84
2022-10-19T07:33:22.306Z,1017.83
2022-10-19T07:34:28.988Z,1017.78
2022-10-19T07:35:22.144Z,1017.78
2022-10-19T07:36:22.189Z,1017.76
2022-10-19T07:37:22.150Z,1017.75
2022-10-19T07:38:22.142Z,1017.77
2022-10-19T07:39:22.188Z,1017.77
2022-10-19T07:40:22.178Z,1017.74
2022-10-19T07:41:22.194Z,1017.72
2022-10-19T07:42:23.267Z,1017.72
2022-10-19T07:43:22.170Z,1017.72
2022-10-19T07:44:22.163Z,1017.74
2022-10-19T07:45:22.194Z,1017.74
2022-10-19T07:46:22.178Z,1017.73
2022-10-19T07:47:22.154Z,1017.74
2022-10-19T07:48:22.156Z,1017.71
2022-10-19T07:49:22.148Z,1017.76
2022-10-19T07:50:22.157Z,1017.74
2022-10-19T07:51:22.236Z,1017.73
2022-10-19T07:52:22.134Z,1017.77
2022-10-19T07:53:22.156Z,1017.7
2022-10-19T07:54:22.192Z,1017.71
2022-10-19T07:55:22.157Z,1017.69
2022-10-19T07:56:22.427Z,1017.65
2022-10-19T07:57:22.667Z,1017.64
2022-10-19T07:58:22.647Z,1017.62
2022-10-19T07:59:21.956Z,1017.63
2022-10-19T08:00:22.244Z,1017.58
2022-10-19T08:01:22.522Z,1017.62
2022-10-19T08:02:23.165Z,1017.57
2022-10-19T08:04:14.153Z,1017.59
2022-10-19T08:04:55.813Z,1017.61
2022-10-19T08:05:21.983Z,1017.59
2022-10-19T08:06:22.277Z,1017.6
2022-10-19T08:07:22.549Z,1017.62
2022-10-19T08:08:23.125Z,1017.6
2022-10-19T08:09:51.844Z,1017.63
2022-10-19T08:10:22.164Z,1017.59
2022-10-19T08:11:22.171Z,1017.62
2022-10-19T08:12:22.152Z,1017.58
2022-10-19T08:13:22.150Z,1017.6
2022-10-19T08:14:22.171Z,1017.58
2022-10-19T08:15:22.225Z,1017.63
2022-10-19T08:16:22.190Z,1017.63
2022-10-19T08:17:22.147Z,1017.66
2022-10-19T08:18:22.221Z,1017.68
2022-10-19T08:19:22.290Z,1017.68
2022-10-19T08:20:22.216Z,1017.69
2022-10-19T08:21:22.166Z,1017.64
2022-10-19T08:22:22.159Z,1017.68
2022-10-19T08:23:22.153Z,1017.67
2022-10-19T08:24:22.183Z,1017.69
2022-10-19T08:25:22.161Z,1017.67
2022-10-19T08:26:22.169Z,1017.67
2022-10-19T08:27:22.170Z,1017.64
2022-10-19T08:28:22.162Z,1017.63
2022-10-19T08:29:22.671Z,1017.69
2022-10-19T08:30:22.157Z,1017.67
2022-10-19T08:31:22.174Z,1017.65
2022-10-19T08:32:22.140Z,1017.68
2022-10-19T08:33:22.148Z,1017.6
2022-10-19T08:34:22.187Z,1017.61
2022-10-19T08:35:22.149Z,1017.61
2022-10-19T08:36:22.199Z,1017.57
2022-10-19T08:37:44.040Z,1017.56
2022-10-19T08:38:22.353Z,1017.59
2022-10-19T08:39:22.234Z,1017.49
2022-10-19T08:40:22.140Z,1017.47
2022-10-19T08:41:22.499Z,1017.48
2022-10-19T08:42:22.379Z,1017.46
2022-10-19T08:43:22.395Z,1017.47
2022-10-19T08:44:22.273Z,1017.45
2022-10-19T08:45:22.400Z,1017.37
2022-10-19T08:46:22.336Z,1017.36
2022-10-19T08:47:25.331Z,1017.36
2022-10-19T08:48:22.303Z,1017.35
2022-10-19T08:49:22.160Z,1017.33
2022-10-19T08:50:22.155Z,1017.28
2022-10-19T08:51:22.433Z,1017.28
2022-10-19T08:52:22.176Z,1017.3
2022-10-19T08:53:22.203Z,1017.26
2022-10-19T08:54:22.150Z,1017.27
2022-10-19T08:55:23.414Z,1017.22
2022-10-19T08:56:50.335Z,1017.27
2022-10-19T08:57:22.139Z,1017.21
2022-10-19T08:58:22.234Z,1017.28
2022-10-19T08:59:22.144Z,1017.33
2022-10-19T09:00:22.147Z,1017.31
2022-10-19T09:01:22.177Z,1017.32
2022-10-19T09:02:22.627Z,1017.31
2022-10-19T09:04:22.232Z,1017.29
2022-10-19T09:05:22.399Z,1017.26
2022-10-19T09:06:22.220Z,1017.25
2022-10-19T09:07:22.139Z,1017.26
2022-10-19T09:08:22.272Z,1017.29
2022-10-19T09:09:22.470Z,1017.31
2022-10-19T09:10:22.153Z,1017.38
2022-10-19T09:11:22.183Z,1017.38
2022-10-19T09:12:22.159Z,1017.36
2022-10-19T09:13:22.148Z,1017.4
2022-10-19T09:14:22.150Z,1017.39
2022-10-19T09:15:22.166Z,1017.39
2022-10-19T09:16:22.169Z,1017.36
2022-10-19T09:17:22.160Z,1017.37
2022-10-19T09:18:22.149Z,1017.33
2022-10-19T09:19:22.150Z,1017.39
2022-10-19T09:20:22.140Z,1017.43
2022-10-19T09:21:28.235Z,1017.46
2022-10-19T09:22:22.159Z,1017.41
2022-10-19T09:23:22.170Z,1017.4
2022-10-19T09:24:22.150Z,1017.38
2022-10-19T09:25:22.237Z,1017.38
2022-10-19T09:26:22.173Z,1017.3
2022-10-19T09:27:22.165Z,1017.3
2022-10-19T09:28:24.261Z,1017.26
2022-10-19T09:29:22.146Z,1017.31
2022-10-19T09:30:22.139Z,1017.33
2022-10-19T09:31:22.176Z,1017.31
2022-10-19T09:32:22.138Z,1017.36
2022-10-19T09:33:22.157Z,1017.33
2022-10-19T09:34:22.158Z,1017.34
2022-10-19T09:35:22.160Z,1017.31
2022-10-19T09:36:46.253Z,1017.34
2022-10-19T09:37:31.315Z,1017.27
2022-10-19T09:38:22.208Z,1017.26
2022-10-19T09:39:27.007Z,1017.24
2022-10-19T09:40:22.145Z,1017.24
2022-10-19T09:41:22.190Z,1017.23
2022-10-19T09:42:22.154Z,1017.16
2022-10-19T09:43:22.175Z,1017.19
2022-10-19T09:44:22.155Z,1017.16
2022-10-19T09:45:22.159Z,1017.22
2022-10-19T09:46:23.353Z,1017.21
2022-10-19T09:47:22.148Z,1017.19
2022-10-19T09:48:22.163Z,1017.19
2022-10-19T09:49:22.154Z,1017.17
2022-10-19T09:50:22.159Z,1017.22
2022-10-19T09:51:22.231Z,1017.21
2022-10-19T09:52:22.153Z,1017.17
2022-10-19T09:53:22.141Z,1017.27
2022-10-19T09:54:22.419Z,1017.29
2022-10-19T09:55:22.154Z,1017.24
2022-10-19T09:56:22.381Z,1017.22
2022-10-19T09:57:22.293Z,1017.23
2022-10-19T09:58:22.602Z,1017.18
2022-10-19T09:59:23.250Z,1017.16
2022-10-19T10:00:23.421Z,1017.16
2022-10-19T10:01:22.396Z,1017.17
2022-10-19T10:02:22.462Z,1017.14
2022-10-19T10:03:22.376Z,1017.15
2022-10-19T10:04:22.663Z,1017.12
2022-10-19T10:05:22.893Z,1017.12
2022-10-19T10:06:23.516Z,1017.05
2022-10-19T10:07:22.315Z,1017.07
2022-10-19T10:08:22.142Z,1017.03
2022-10-19T10:09:22.395Z,1017.01
2022-10-19T10:10:24.582Z,1017.08
2022-10-19T10:11:22.204Z,1017.04
2022-10-19T10:12:22.176Z,1017.04
2022-10-19T10:13:22.386Z,1017.04
2022-10-19T10:14:22.147Z,1017
2022-10-19T10:15:22.374Z,1016.99
2022-10-19T10:16:22.327Z,1016.98
2022-10-19T10:17:22.593Z,1017
2022-10-19T10:18:22.292Z,1017.02
2022-10-19T10:19:27.596Z,1016.97
2022-10-19T10:20:22.480Z,1016.93
2022-10-19T10:21:28.422Z,1016.95
2022-10-19T10:22:22.488Z,1016.91
2022-10-19T10:23:22.285Z,1016.89
2022-10-19T10:24:22.145Z,1016.92
2022-10-19T10:25:22.850Z,1016.91
2022-10-19T10:26:22.529Z,1016.83
2022-10-19T10:27:22.426Z,1016.84
2022-10-19T10:28:22.145Z,1016.78
2022-10-19T10:29:22.149Z,1016.73
2022-10-19T10:30:22.149Z,1016.74
2022-10-19T10:31:22.195Z,1016.72
2022-10-19T10:32:22.155Z,1016.66
2022-10-19T10:33:40.616Z,1016.66
2022-10-19T10:34:38.727Z,1016.65
2022-10-19T10:35:22.270Z,1016.61
2022-10-19T10:36:22.292Z,1016.69
2022-10-19T10:37:22.147Z,1016.63
2022-10-19T10:38:22.157Z,1016.69
2022-10-19T10:39:22.157Z,1016.67
2022-10-19T10:40:25.622Z,1016.67
2022-10-19T10:41:22.195Z,1016.69
2022-10-19T10:42:22.142Z,1016.63
2022-10-19T10:43:22.152Z,1016.71
2022-10-19T10:44:22.149Z,1016.57
2022-10-19T10:45:22.273Z,1016.56
2022-10-19T10:46:22.201Z,1016.6
2022-10-19T10:47:22.324Z,1016.65
2022-10-19T10:48:22.145Z,1016.61
2022-10-19T10:49:22.151Z,1016.65
2022-10-19T10:50:22.146Z,1016.7
2022-10-19T10:51:22.212Z,1016.66
2022-10-19T10:52:22.151Z,1016.58
2022-10-19T10:53:22.153Z,1016.65
2022-10-19T10:54:22.165Z,1016.57
2022-10-19T10:55:22.229Z,1016.6
2022-10-19T10:56:22.203Z,1016.55
2022-10-19T10:58:24.283Z,1016.6
2022-10-19T10:59:22.302Z,1016.53
2022-10-19T11:00:22.157Z,1016.5
2022-10-19T11:01:22.216Z,1016.53
2022-10-19T11:02:22.178Z,1016.49
2022-10-19T11:03:22.153Z,1016.46
2022-10-19T11:04:22.141Z,1016.41
2022-10-19T11:05:22.157Z,1016.43
2022-10-19T11:06:22.196Z,1016.44
2022-10-19T11:07:22.156Z,1016.42
2022-10-19T11:08:22.198Z,1016.4
2022-10-19T11:09:22.152Z,1016.41
2022-10-19T11:10:22.166Z,1016.38
2022-10-19T11:11:22.170Z,1016.45
2022-10-19T11:12:22.152Z,1016.36
2022-10-19T11:13:22.156Z,1016.32
2022-10-19T11:14:22.146Z,1016.39
2022-10-19T11:15:22.199Z,1016.36
2022-10-19T11:16:22.163Z,1016.28
2022-10-19T11:17:22.175Z,1016.34
2022-10-19T11:18:22.252Z,1016.26
2022-10-19T11:19:22.238Z,1016.31
2022-10-19T11:20:22.158Z,1016.32
2022-10-19T11:21:22.235Z,1016.27
2022-10-19T11:22:28.425Z,1016.24
2022-10-19T11:23:22.141Z,1016.21
2022-10-19T11:24:22.198Z,1016.14
2022-10-19T11:25:22.143Z,1016.13
2022-10-19T11:26:22.163Z,1016.18
2022-10-19T11:27:22.139Z,1016.11
2022-10-19T11:28:22.166Z,1016.1
2022-10-19T11:29:22.159Z,1016.05
2022-10-19T11:30:22.262Z,1016.07
2022-10-19T11:31:22.160Z,1016.06
2022-10-19T11:32:22.239Z,1016.15
2022-10-19T11:33:22.251Z,1016.09
2022-10-19T11:34:28.455Z,1016.02
2022-10-19T11:35:22.156Z,1016.01
2022-10-19T11:36:22.180Z,1015.98
2022-10-19T11:37:22.144Z,1016.02
2022-10-19T11:38:31.421Z,1016.05
2022-10-19T11:39:22.146Z,1015.95
2022-10-19T11:40:25.432Z,1015.94
2022-10-19T11:41:22.265Z,1015.88
2022-10-19T11:42:22.157Z,1015.79
2022-10-19T11:43:28.423Z,1015.88
2022-10-19T11:44:22.181Z,1015.77
2022-10-19T11:45:22.369Z,1015.66
2022-10-19T11:46:22.172Z,1015.69
2022-10-19T11:47:22.148Z,1015.7
2022-10-19T11:48:22.406Z,1015.67
2022-10-19T11:49:22.735Z,1015.63
2022-10-19T11:50:22.612Z,1015.61
2022-10-19T11:51:23.936Z,1015.54
2022-10-19T11:52:22.244Z,1015.6
2022-10-19T11:53:22.460Z,1015.55
2022-10-19T11:54:22.943Z,1015.6
2022-10-19T11:55:22.209Z,1015.55
2022-10-19T11:56:34.978Z,1015.57
2022-10-19T11:57:22.801Z,1015.53
2022-10-19T11:58:22.357Z,1015.54
2022-10-19T11:59:22.594Z,1015.39
2022-10-19T12:00:38.979Z,1015.46
2022-10-19T12:01:23.397Z,1015.45
2022-10-19T12:02:22.612Z,1015.44
2022-10-19T12:03:22.162Z,1015.45
2022-10-19T12:04:22.426Z,1015.43
2022-10-19T12:05:22.205Z,1015.45
2022-10-19T12:06:22.176Z,1015.38
2022-10-19T12:07:22.265Z,1015.35
2022-10-19T12:08:22.270Z,1015.46
2022-10-19T12:09:22.408Z,1015.41
2022-10-19T12:10:22.191Z,1015.4
2022-10-19T12:11:22.457Z,1015.37